createdAt,value
2024-01-27T00:00:00.707Z,100016.13
2024-01-27T00:05:23.148Z,100048.50
2024-01-27T00:10:47.580Z,100043.97
2024-01-27T00:16:10.618Z,100059.34
2024-01-27T00:21:32.542Z,100065.69
2024-01-27T00:26:55.540Z,100072.34
2024-01-27T00:32:18.936Z,100072.94
2024-01-27T00:37:41.201Z,100069.44
2024-01-27T00:43:06.263Z,100066.53
2024-01-27T00:48:28.738Z,100066.28
2024-01-27T00:53:51.114Z,100062.56
2024-01-27T00:59:13.947Z,100066.03
2024-01-27T01:04:39.872Z,100057.53
2024-01-27T01:10:16.416Z,100045.50
2024-01-27T01:15:44.578Z,100058.09
2024-01-27T01:21:14.868Z,100057.16
2024-01-27T01:26:42.643Z,100048.94
2024-01-27T01:32:06.282Z,100048.91
2024-01-27T01:37:30.438Z,100041.94
2024-01-27T01:43:13.571Z,100048.13
2024-01-27T01:48:39.337Z,100049.94
2024-01-27T01:54:03.576Z,100074.94
2024-01-27T01:59:27.210Z,100089.56
2024-01-27T02:11:32.180Z,100108.50
2024-01-27T02:16:57.569Z,100101.38
2024-01-27T02:22:19.524Z,100101.91
2024-01-27T02:27:41.725Z,100114.47
2024-01-27T02:33:04.431Z,100103.59
2024-01-27T02:38:26.986Z,100121.84
2024-01-27T02:43:49.212Z,100113.84
2024-01-27T02:49:11.616Z,100121.03
2024-01-27T02:54:34.077Z,100126.63
2024-01-27T03:00:30.044Z,100104.41
2024-01-27T03:06:40.353Z,100124.66
2024-01-27T03:12:38.492Z,100113.94
2024-01-27T03:18:08.192Z,100130.16
2024-01-27T03:23:31.500Z,100120.44
2024-01-27T03:28:54.200Z,100129.59
2024-01-27T03:34:16.968Z,100151.50
2024-01-27T03:39:49.030Z,100134.34
2024-01-27T03:51:17.377Z,100142.38
2024-01-27T03:56:44.165Z,100172.41
2024-01-27T04:02:06.413Z,100167.69
2024-01-27T04:07:28.970Z,100176.47
2024-01-27T04:12:51.476Z,100185.97
2024-01-27T04:18:13.700Z,100187.44
2024-01-27T04:23:35.787Z,100180.22
2024-01-27T04:28:58.482Z,100188.84
2024-01-27T04:34:22.991Z,100182.06
2024-01-27T04:39:45.299Z,100200.25
2024-01-27T04:45:08.271Z,100197.25
2024-01-27T04:50:30.824Z,100205.28
2024-01-27T04:55:54.172Z,100199.38
2024-01-27T05:01:17.179Z,100180.78
2024-01-27T05:06:40.935Z,100185.19
2024-01-27T05:12:06.223Z,100205.78
2024-01-27T05:17:28.822Z,100214.44
2024-01-27T05:22:51.975Z,100194.69
2024-01-27T05:28:14.263Z,100220.19
2024-01-27T05:33:44.793Z,100239.56
2024-01-27T05:39:11.972Z,100219.88
2024-01-27T05:44:42.546Z,100251.91
2024-01-27T05:50:12.497Z,100254.19
2024-01-27T05:56:12.465Z,100256.81
2024-01-27T06:01:52.251Z,100242.44
2024-01-27T06:07:36.214Z,100234.25
2024-01-27T06:13:05.956Z,100262.34
2024-01-27T06:18:33.319Z,100248.63
2024-01-27T06:24:04.021Z,100255.19
2024-01-27T06:29:38.623Z,100256.31
2024-01-27T06:35:01.647Z,100265.78
2024-01-27T06:40:26.370Z,100263.69
2024-01-27T06:51:58.420Z,100304.22
2024-01-27T06:57:26.093Z,100301.59
2024-01-27T07:02:48.224Z,100308.09
2024-01-27T07:08:11.924Z,100307.81
2024-01-27T07:13:34.366Z,100318.28
2024-01-27T07:18:56.594Z,100327.44
2024-01-27T07:24:19.105Z,100331.69
2024-01-27T07:29:41.892Z,100353.59
2024-01-27T07:35:04.067Z,100351.31
2024-01-27T07:40:26.762Z,100341.84
2024-01-27T07:45:48.905Z,100352.78
2024-01-27T07:51:12.850Z,100355.06
2024-01-27T07:56:34.986Z,100363.75
2024-01-27T08:01:57.236Z,100362.44
2024-01-27T08:07:19.258Z,100370.41
2024-01-27T08:12:41.815Z,100363.72
2024-01-27T08:18:04.043Z,100388.78
2024-01-27T08:23:26.234Z,100381.22
2024-01-27T08:28:49.074Z,100387.28
2024-01-27T08:34:17.005Z,100380.22
2024-01-27T08:39:38.741Z,100396.09
2024-01-27T08:45:00.834Z,100378.59
2024-01-27T08:50:25.971Z,100391.34
2024-01-27T08:55:48.034Z,100402.63
2024-01-27T09:01:11.631Z,100410.78
2024-01-27T09:06:34.156Z,100423.00
2024-01-27T09:11:56.576Z,100409.94
2024-01-27T09:17:19.032Z,100418.28
2024-01-27T09:22:41.321Z,100413.38
2024-01-27T09:28:03.747Z,100408.84
2024-01-27T09:33:26.204Z,100406.44
2024-01-27T09:38:50.981Z,100422.78
2024-01-27T09:44:14.370Z,100431.06
2024-01-27T09:49:46.449Z,100418.41
2024-01-27T09:55:09.409Z,100429.91
2024-01-27T10:00:49.900Z,100435.97
2024-01-27T10:06:13.924Z,100426.09
2024-01-27T10:11:38.676Z,100450.34
2024-01-27T10:17:01.094Z,100451.50
2024-01-27T10:22:24.402Z,100439.81
2024-01-27T10:27:50.068Z,100451.03
2024-01-27T10:33:13.473Z,100465.75
2024-01-27T10:38:40.271Z,100466.13
2024-01-27T10:44:03.286Z,100463.94
2024-01-27T10:49:27.031Z,100472.66
2024-01-27T10:54:50.645Z,100464.28
2024-01-27T11:00:14.957Z,100487.22
2024-01-27T11:05:38.728Z,100479.81
2024-01-27T11:11:00.919Z,100492.25
2024-01-27T11:16:25.413Z,100507.66
2024-01-27T11:21:48.337Z,100507.38
2024-01-27T11:27:10.772Z,100507.38
2024-01-27T11:32:34.477Z,100514.06
2024-01-27T11:37:57.048Z,100522.94
2024-01-27T11:43:19.257Z,100526.25
2024-01-27T11:48:44.559Z,100531.13
2024-01-27T11:54:06.890Z,100531.31
2024-01-27T11:59:29.093Z,100519.84
2024-01-27T12:04:51.890Z,100548.16
2024-01-27T12:10:14.104Z,100540.50
2024-01-27T12:15:36.810Z,100531.31
2024-01-27T12:20:59.653Z,100526.41
2024-01-27T12:26:24.736Z,100543.13
2024-01-27T12:31:47.517Z,100574.25
2024-01-27T12:37:15.183Z,100553.28
2024-01-27T12:42:37.636Z,100563.94
2024-01-27T12:48:01.185Z,100580.47
2024-01-27T12:53:23.801Z,100576.88
2024-01-27T12:58:45.952Z,100581.94
2024-01-27T13:04:08.076Z,100600.47
2024-01-27T13:09:30.409Z,100612.59
2024-01-27T13:14:52.703Z,100626.03
2024-01-27T13:20:20.593Z,100625.69
2024-01-27T13:25:49.787Z,100638.13
2024-01-27T13:31:20.149Z,100635.03
2024-01-27T13:36:42.489Z,100647.16
2024-01-27T13:42:06.722Z,100655.84
2024-01-27T13:47:29.041Z,100662.53
2024-01-27T13:52:50.919Z,100669.41
2024-01-27T13:58:16.087Z,100668.75
2024-01-27T14:03:39.092Z,100680.88
2024-01-27T14:09:01.121Z,100686.31
2024-01-27T14:14:23.527Z,100689.25
2024-01-27T14:19:48.073Z,100680.84
2024-01-27T14:25:12.672Z,100694.75
2024-01-27T14:30:35.273Z,100697.06
2024-01-27T14:35:57.667Z,100713.38
2024-01-27T14:41:20.067Z,100706.06
2024-01-27T14:46:42.703Z,100709.53
2024-01-27T14:52:11.164Z,100723.13
2024-01-27T14:57:33.456Z,100720.09
2024-01-27T15:02:58.001Z,100709.34
2024-01-27T15:08:21.792Z,100742.25
2024-01-27T15:13:45.369Z,100713.75
2024-01-27T15:19:11.856Z,100725.75
2024-01-27T15:24:36.949Z,100751.16
2024-01-27T15:30:02.252Z,100727.47
2024-01-27T15:35:34.943Z,100724.59
2024-01-27T15:41:00.340Z,100748.53
2024-01-27T15:46:22.828Z,100719.78
2024-01-27T15:51:46.159Z,100758.41
2024-01-27T15:57:08.407Z,100742.94
2024-01-27T16:02:33.007Z,100732.59
2024-01-27T16:07:57.454Z,100720.97
2024-01-27T16:13:19.624Z,100765.06
2024-01-27T16:18:42.322Z,100755.16
2024-01-27T16:24:05.260Z,100773.94
2024-01-27T16:29:31.174Z,100758.91
2024-01-27T16:34:53.098Z,100744.06
2024-01-27T16:40:18.143Z,100759.88
2024-01-27T16:45:40.725Z,100767.38
2024-01-27T16:51:05.487Z,100791.00
2024-01-27T16:56:34.704Z,100769.75
2024-01-27T17:02:06.288Z,100784.88
2024-01-27T17:07:30.910Z,100813.97
2024-01-27T17:12:54.491Z,100824.56
2024-01-27T17:18:17.989Z,100817.81
2024-01-27T17:23:40.502Z,100821.63
2024-01-27T17:29:05.099Z,100847.66
2024-01-27T17:34:27.209Z,100825.59
2024-01-27T17:39:51.124Z,100846.72
2024-01-27T17:45:12.981Z,100826.91
2024-01-27T17:50:35.457Z,100849.84
2024-01-27T17:56:07.404Z,100825.66
2024-01-27T18:01:32.674Z,100822.28
2024-01-27T18:06:56.691Z,100817.78
2024-01-27T18:12:22.151Z,100841.56
2024-01-27T18:17:44.780Z,100825.53
2024-01-27T18:23:09.182Z,100834.91
2024-01-27T18:28:35.994Z,100843.31
2024-01-27T18:34:24.976Z,100846.41
2024-01-27T18:39:53.457Z,100862.94
2024-01-27T18:45:17.414Z,100870.47
2024-01-27T18:50:45.356Z,100855.91
2024-01-27T18:56:08.137Z,100883.66
2024-01-27T19:01:30.513Z,100889.47
2024-01-27T19:06:52.226Z,100892.19
2024-01-27T19:12:14.392Z,100895.22
2024-01-27T19:17:37.285Z,100902.53
2024-01-27T19:23:00.265Z,100912.00
2024-01-27T19:28:25.695Z,100916.00
2024-01-27T19:33:47.766Z,100924.63
2024-01-27T19:39:11.919Z,100917.28
2024-01-27T19:44:34.142Z,100926.78
2024-01-27T19:49:56.550Z,100939.25
2024-01-27T19:55:19.778Z,100940.88
2024-01-27T20:00:42.168Z,100916.94
2024-01-27T20:06:06.175Z,100941.28
2024-01-27T20:11:28.467Z,100961.91
2024-01-27T20:16:51.660Z,100952.59
2024-01-27T20:22:15.386Z,100947.66
2024-01-27T20:27:41.062Z,100925.16
2024-01-27T20:33:04.304Z,100964.56
2024-01-27T20:38:30.112Z,100950.59
2024-01-27T20:43:52.599Z,100937.59
2024-01-27T20:49:15.074Z,100980.59
2024-01-27T20:54:37.605Z,100982.69
2024-01-27T20:59:59.727Z,101017.47
2024-01-27T21:05:21.883Z,101023.03
2024-01-27T21:10:44.332Z,101013.47
2024-01-27T21:16:06.891Z,101021.44
2024-01-27T21:21:29.229Z,101010.38
2024-01-27T21:26:51.442Z,101025.97
2024-01-27T21:32:14.027Z,101043.72
2024-01-27T21:37:36.103Z,101027.81
2024-01-27T21:42:58.354Z,101035.53
2024-01-27T21:48:22.766Z,101041.72
2024-01-27T21:53:45.140Z,101046.22
2024-01-27T21:59:22.006Z,101041.16
2024-01-27T22:05:52.552Z,101030.00
2024-01-27T22:11:17.473Z,101025.22
2024-01-27T22:16:42.505Z,101071.97
2024-01-27T22:22:05.743Z,101075.69
2024-01-27T22:27:32.521Z,101055.59
2024-01-27T22:33:06.286Z,101035.66
2024-01-27T22:38:28.789Z,101042.81
2024-01-27T22:44:02.796Z,101050.56
2024-01-27T22:49:26.112Z,101068.44
2024-01-27T22:54:49.878Z,101076.91
2024-01-27T23:06:30.805Z,101049.06
2024-01-27T23:11:52.934Z,101087.38
2024-01-27T23:17:15.384Z,101047.47
2024-01-27T23:22:39.124Z,101073.72
2024-01-27T23:28:03.553Z,101086.28
2024-01-27T23:33:25.811Z,101098.38
2024-01-27T23:38:48.104Z,101091.84
2024-01-27T23:44:10.564Z,101101.50
2024-01-27T23:49:32.717Z,101105.41
2024-01-27T23:54:55.200Z,101077.13
